Time;durP1;ratioP1;P1;durP2;ratioP2;P2;SDS_P1;SDS_P2;PMS_P1;PMS_P2;Temp;Humidity;BMP_temperature;BMP_pressure;BME280_temperature;BME280_humidity;BME280_pressure;Samples;Min_cycle;Max_cycle;Signal;HPM_P1;HPM_P2
2022/08/22 00:00:50;;;;;;;6.07;3.92;;;16.50;99.90;;;;;;4899197;28;93165;-34
2022/08/22 00:03:33;;;;;;;8.63;3.88;;;16.40;99.90;;;;;;4896028;28;94735;-33
2022/08/22 00:06:21;;;;;;;4.65;3.15;;;16.40;99.90;;;;;;4892507;28;94765;-33
2022/08/22 00:09:06;;;;;;;4.25;3.17;;;16.40;99.90;;;;;;4899129;28;92912;-32
2022/08/22 00:11:42;;;;;;;6.47;4.05;;;16.30;99.90;;;;;;4898858;28;93748;-34
2022/08/22 00:14:33;;;;;;;6.38;4.07;;;16.30;99.90;;;;;;4899177;28;94830;-33
2022/08/22 00:17:10;;;;;;;8.93;4.70;;;16.30;99.90;;;;;;4888999;28;94374;-34
2022/08/22 00:20:03;;;;;;;8.57;4.03;;;16.30;99.90;;;;;;4898857;28;92143;-32
2022/08/22 00:23:01;;;;;;;9.05;3.95;;;16.20;99.90;;;;;;4898641;28;92603;-31
2022/08/22 00:25:44;;;;;;;6.55;4.63;;;16.20;99.90;;;;;;4879442;28;96381;-31
2022/08/22 00:28:35;;;;;;;10.02;3.83;;;16.20;99.90;;;;;;4933576;23;95333;-30
2022/08/22 00:31:30;;;;;;;6.75;3.38;;;16.10;99.90;;;;;;4899080;28;93969;-34
2022/08/22 00:34:02;;;;;;;5.07;3.88;;;16.00;99.90;;;;;;4899207;28;93149;-34
2022/08/22 00:36:31;;;;;;;3.63;3.17;;;15.90;99.90;;;;;;4898233;28;94902;-35
2022/08/22 00:39:06;;;;;;;4.78;3.38;;;15.80;99.90;;;;;;4899974;28;94458;-31
2022/08/22 00:41:53;;;;;;;4.80;3.97;;;15.80;99.90;;;;;;4902306;28;93811;-31
2022/08/22 00:45:02;;;;;;;7.15;5.10;;;15.80;99.90;;;;;;4902071;28;92442;-31
2022/08/22 00:47:36;;;;;;;6.85;5.13;;;15.80;99.90;;;;;;4890467;28;93614;-33
2022/08/22 00:50:30;;;;;;;5.95;4.68;;;15.80;99.90;;;;;;4901649;28;94383;-32
2022/08/22 00:53:17;;;;;;;7.75;4.70;;;15.80;99.90;;;;;;4902405;28;94548;-31
2022/08/22 00:56:11;;;;;;;5.17;4.43;;;15.90;99.90;;;;;;4902231;28;94175;-31
2022/08/22 00:59:13;;;;;;;7.22;4.10;;;15.90;99.90;;;;;;4901916;28;94652;-30
2022/08/22 01:02:03;;;;;;;7.88;4.35;;;15.90;99.90;;;;;;4901669;28;95011;-31
2022/08/22 01:04:59;;;;;;;6.38;4.13;;;15.90;99.90;;;;;;4890223;28;92246;-33
2022/08/22 01:07:50;;;;;;;9.85;4.72;;;15.90;99.90;;;;;;4901614;28;93345;-33
2022/08/22 01:10:34;;;;;;;4.35;3.17;;;15.90;99.90;;;;;;4901790;28;94858;-32
2022/08/22 01:13:15;;;;;;;11.15;4.85;;;15.90;99.90;;;;;;4888884;28;94323;-30
2022/08/22 01:15:42;;;;;;;9.63;4.68;;;15.90;99.90;;;;;;4901827;28;94595;-31
2022/08/22 01:18:42;;;;;;;4.85;3.50;;;15.90;99.90;;;;;;4901558;28;93639;-30
2022/08/22 01:21:28;;;;;;;3.90;3.45;;;16.00;99.90;;;;;;4900559;28;95469;-33
2022/08/22 01:24:31;;;;;;;7.97;3.38;;;16.00;99.90;;;;;;4901086;28;95397;-33
2022/08/22 01:27:15;;;;;;;8.13;4.10;;;16.00;99.90;;;;;;4902135;28;92212;-34
2022/08/22 01:30:10;;;;;;;5.10;3.50;;;16.00;99.90;;;;;;4900773;28;93128;-35
2022/08/22 01:32:59;;;;;;;5.57;3.83;;;16.00;99.90;;;;;;4900817;28;94938;-32
2022/08/22 01:35:35;;;;;;;6.97;3.97;;;16.00;99.90;;;;;;4898648;28;94562;-31
2022/08/22 01:38:24;;;;;;;5.93;3.80;;;16.00;99.90;;;;;;4901900;28;93450;-31
2022/08/22 01:41:16;;;;;;;8.27;4.15;;;16.00;99.90;;;;;;4901524;28;92569;-33
2022/08/22 01:44:15;;;;;;;6.32;3.95;;;16.00;99.90;;;;;;4888499;28;95471;-31
2022/08/22 01:47:02;;;;;;;8.18;4.50;;;16.00;99.90;;;;;;4901150;28;94626;-34
2022/08/22 01:49:34;;;;;;;8.73;3.80;;;16.10;99.90;;;;;;4899756;28;93433;-34
2022/08/22 01:52:03;;;;;;;6.68;4.53;;;16.10;99.90;;;;;;4900416;28;93114;-30
2022/08/22 01:54:46;;;;;;;9.45;4.57;;;16.10;99.90;;;;;;4900423;28;94898;-31
2022/08/22 01:57:13;;;;;;;10.23;4.22;;;16.20;99.90;;;;;;4900790;28;94400;-33
2022/08/22 01:59:43;;;;;;;11.38;4.03;;;16.20;99.90;;;;;;4901405;28;95258;-31
2022/08/22 02:02:39;;;;;;;6.07;3.92;;;16.20;99.90;;;;;;4900468;28;95013;-34
2022/08/22 02:05:19;;;;;;;4.68;3.20;;;16.20;99.90;;;;;;4900624;28;94535;-32
2022/08/22 02:08:05;;;;;;;6.80;3.80;;;16.20;99.90;;;;;;4901511;28;94656;-31
2022/08/22 02:11:02;;;;;;;9.13;4.60;;;16.10;99.90;;;;;;4898946;28;95167;-32
2022/08/22 02:13:55;;;;;;;5.13;3.55;;;16.10;99.90;;;;;;4899742;28;93923;-32
2022/08/22 02:16:41;;;;;;;8.13;4.60;;;16.10;99.90;;;;;;4887137;28;95682;-30
2022/08/22 02:19:13;;;;;;;5.32;3.38;;;16.00;99.90;;;;;;4900577;28;94372;-32
2022/08/22 02:21:52;;;;;;;4.78;4.05;;;16.00;99.90;;;;;;4900969;28;93378;-33
2022/08/22 02:24:32;;;;;;;8.15;4.95;;;15.90;99.90;;;;;;4900378;28;93026;-32
2022/08/22 02:27:11;;;;;;;5.90;3.53;;;15.90;99.90;;;;;;4899852;28;94864;-32
2022/08/22 02:29:46;;;;;;;5.93;4.53;;;15.90;99.90;;;;;;4900300;28;95646;-32
2022/08/22 02:32:56;;;;;;;6.43;4.45;;;15.80;99.90;;;;;;4901124;28;93110;-30
2022/08/22 02:35:31;;;;;;;5.90;4.70;;;15.80;99.90;;;;;;4901144;28;93096;-32
2022/08/22 02:38:12;;;;;;;13.35;5.28;;;15.70;99.90;;;;;;4899890;28;95976;-32
2022/08/22 02:41:00;;;;;;;9.00;4.43;;;15.70;99.90;;;;;;4900299;28;93199;-30
2022/08/22 02:43:45;;;;;;;5.82;4.60;;;15.70;99.90;;;;;;4898288;28;95039;-33
2022/08/22 02:46:41;;;;;;;5.35;4.88;;;15.70;99.90;;;;;;4900662;28;92163;-32
2022/08/22 02:49:17;;;;;;;6.80;4.85;;;15.70;99.90;;;;;;4890183;28;95222;-34
2022/08/22 02:51:52;;;;;;;10.70;4.95;;;15.60;99.90;;;;;;4899934;28;93907;-32
2022/08/22 02:54:40;;;;;;;8.52;6.00;;;15.60;99.90;;;;;;4900126;28;94385;-29
2022/08/22 02:57:15;;;;;;;7.80;5.75;;;15.60;99.90;;;;;;4900416;28;94018;-34
2022/08/22 03:00:04;;;;;;;7.45;5.75;;;15.50;99.90;;;;;;4899783;28;94758;-33
2022/08/22 03:02:36;;;;;;;13.35;6.55;;;15.50;99.90;;;;;;4888066;28;95048;-32
2022/08/22 03:05:25;;;;;;;11.48;5.65;;;15.50;99.90;;;;;;4899886;28;93413;-31
2022/08/22 03:08:05;;;;;;;6.90;5.45;;;15.50;99.90;;;;;;4899613;28;93103;-32
2022/08/22 03:10:37;;;;;;;11.88;8.35;;;15.50;99.90;;;;;;4899023;28;95643;-31
2022/08/22 03:13:10;;;;;;;11.15;6.50;;;15.50;99.90;;;;;;4898897;28;95458;-32
2022/08/22 03:15:59;;;;;;;9.50;6.18;;;15.50;99.90;;;;;;4899352;28;93304;-33
2022/08/22 03:18:30;;;;;;;10.40;6.53;;;15.50;99.90;;;;;;4899728;28;93804;-32
2022/08/22 03:21:14;;;;;;;9.60;6.70;;;15.50;99.90;;;;;;4899220;28;94254;-30
2022/08/22 03:23:46;;;;;;;13.20;6.63;;;15.50;99.90;;;;;;4900023;28;94800;-32
2022/08/22 03:26:26;;;;;;;9.93;7.53;;;15.40;99.90;;;;;;4899586;28;94367;-31
2022/08/22 03:29:01;;;;;;;12.75;6.75;;;15.40;99.90;;;;;;4900040;28;93948;-31
2022/08/22 03:31:29;;;;;;;10.10;6.60;;;15.40;99.90;;;;;;4899286;28;94138;-32
2022/08/22 03:34:20;;;;;;;12.60;6.60;;;15.40;99.90;;;;;;4900015;28;96156;-31
2022/08/22 03:37:16;;;;;;;10.05;7.03;;;15.40;99.90;;;;;;4886620;28;94170;-32
2022/08/22 03:40:13;;;;;;;7.25;5.82;;;15.40;99.90;;;;;;4899281;28;93018;-33
2022/08/22 03:43:07;;;;;;;11.87;8.33;;;15.40;99.90;;;;;;4898647;28;94524;-30
2022/08/22 03:45:40;;;;;;;15.10;7.05;;;15.30;99.90;;;;;;4888425;28;94708;-31
2022/08/22 03:48:50;;;;;;;9.60;7.70;;;15.40;99.90;;;;;;4900386;28;93163;-35
2022/08/22 03:51:32;;;;;;;10.77;6.38;;;15.40;99.90;;;;;;4898146;28;94552;-34
2022/08/22 03:54:16;;;;;;;11.02;7.25;;;15.40;99.90;;;;;;4887562;28;95163;-32
2022/08/22 03:57:18;;;;;;;20.98;8.13;;;15.40;99.90;;;;;;4899506;28;94434;-34
2022/08/22 04:00:00;;;;;;;9.60;7.53;;;15.50;99.90;;;;;;4899264;28;94160;-32
2022/08/22 04:02:37;;;;;;;9.93;8.23;;;15.50;99.90;;;;;;4899427;28;93232;-32
2022/08/22 04:05:18;;;;;;;6.88;6.28;;;15.50;99.90;;;;;;4898347;28;95995;-30
2022/08/22 04:08:02;;;;;;;13.15;8.90;;;15.50;99.90;;;;;;4899423;28;95498;-31
2022/08/22 04:11:02;;;;;;;14.93;7.55;;;15.50;99.90;;;;;;4897399;28;94890;-34
2022/08/22 04:14:02;;;;;;;14.43;9.48;;;15.60;99.90;;;;;;4888628;28;92984;-31
2022/08/22 04:17:06;;;;;;;9.23;8.02;;;15.60;99.90;;;;;;4899033;28;94759;-30
2022/08/22 04:20:04;;;;;;;12.50;9.02;;;15.60;99.90;;;;;;4898059;28;94265;-31
2022/08/22 04:22:48;;;;;;;14.20;8.30;;;15.60;99.90;;;;;;4898926;28;93562;-32
2022/08/22 04:25:22;;;;;;;13.65;8.82;;;15.60;99.90;;;;;;4898716;28;91422;-30
2022/08/22 04:28:18;;;;;;;19.33;9.85;;;15.60;99.90;;;;;;4898027;28;94166;-31
2022/08/22 04:30:52;;;;;;;13.10;8.63;;;15.60;99.90;;;;;;4898522;28;94825;-32
2022/08/22 04:33:35;;;;;;;13.27;8.77;;;15.60;99.90;;;;;;4898603;28;93525;-32
2022/08/22 04:36:14;;;;;;;15.75;10.48;;;15.60;99.90;;;;;;4898574;28;93390;-32
2022/08/22 04:39:03;;;;;;;14.90;8.48;;;15.60;99.90;;;;;;4898127;28;94713;-32
2022/08/22 04:41:50;;;;;;;13.68;8.35;;;15.70;99.90;;;;;;4896893;28;94516;-31
2022/08/22 04:44:15;;;;;;;16.47;9.03;;;15.70;99.90;;;;;;4898894;28;93767;-31
2022/08/22 04:46:48;;;;;;;10.48;8.52;;;15.70;99.90;;;;;;4898781;28;93033;-30
2022/08/22 04:49:34;;;;;;;12.23;9.10;;;15.70;99.90;;;;;;4898020;28;96451;-33
2022/08/22 04:52:31;;;;;;;13.82;8.00;;;15.70;99.90;;;;;;4899298;28;94471;-31
2022/08/22 04:55:13;;;;;;;12.00;9.27;;;15.70;99.90;;;;;;4899342;28;93301;-31
2022/08/22 04:57:54;;;;;;;14.30;9.57;;;15.70;99.90;;;;;;4898894;28;93916;-31
2022/08/22 05:00:21;;;;;;;12.68;11.13;;;15.70;99.90;;;;;;4897483;28;96373;-33
2022/08/22 05:02:54;;;;;;;12.10;9.27;;;15.70;99.90;;;;;;4897942;28;95628;-33
2022/08/22 05:05:25;;;;;;;11.38;10.18;;;15.80;99.90;;;;;;4898607;28;93384;-29
2022/08/22 05:07:58;;;;;;;15.82;9.90;;;15.70;99.90;;;;;;4897524;28;94254;-32
2022/08/22 05:10:33;;;;;;;13.48;9.00;;;15.70;99.90;;;;;;4898168;28;96022;-33
2022/08/22 05:13:08;;;;;;;13.60;9.43;;;15.70;99.90;;;;;;4885469;28;95312;-31
2022/08/22 05:15:37;;;;;;;11.18;8.93;;;15.70;99.90;;;;;;4898233;28;93343;-31
2022/08/22 05:18:09;;;;;;;13.38;10.35;;;15.70;99.90;;;;;;4897510;28;93607;-30
2022/08/22 05:20:38;;;;;;;18.23;8.98;;;15.80;99.90;;;;;;4894698;28;93625;-34
2022/08/22 05:23:41;;;;;;;18.02;9.82;;;15.80;99.90;;;;;;4898011;28;94393;-30
2022/08/22 05:26:09;;;;;;;11.00;8.18;;;15.90;99.90;;;;;;4890757;28;93496;-30
2022/08/22 05:28:40;;;;;;;13.48;9.10;;;15.90;99.90;;;;;;4899969;28;92186;-30
2022/08/22 05:31:22;;;;;;;12.90;9.32;;;15.90;99.90;;;;;;4901202;28;94754;-31
2022/08/22 05:33:51;;;;;;;18.73;8.68;;;16.00;99.90;;;;;;4901504;28;94665;-31
2022/08/22 05:36:27;;;;;;;13.15;8.68;;;16.00;99.90;;;;;;4901300;28;93116;-33
2022/08/22 05:39:01;;;;;;;11.95;7.90;;;16.00;99.90;;;;;;4901165;28;94308;-33
2022/08/22 05:41:31;;;;;;;9.25;8.13;;;16.00;99.90;;;;;;4900455;28;95156;-33
2022/08/22 05:43:58;;;;;;;15.07;8.55;;;16.10;99.90;;;;;;4900837;28;94680;-32
2022/08/22 05:46:39;;;;;;;17.33;8.68;;;16.20;99.90;;;;;;4900577;28;94386;-30
2022/08/22 05:49:14;;;;;;;16.52;9.10;;;16.10;99.90;;;;;;4901569;28;94770;-31
2022/08/22 05:51:46;;;;;;;12.35;10.00;;;16.20;99.90;;;;;;4900508;28;96915;-32
2022/08/22 05:54:22;;;;;;;15.10;9.10;;;16.20;99.90;;;;;;4900340;28;95719;-32
2022/08/22 05:56:59;;;;;;;10.98;9.85;;;16.20;99.90;;;;;;4899765;28;94117;-31
2022/08/22 05:59:31;;;;;;;10.68;9.15;;;16.20;99.90;;;;;;4899615;28;94197;-31
2022/08/22 06:02:09;;;;;;;11.85;7.97;;;16.30;99.90;;;;;;4900555;28;94766;-32
2022/08/22 06:04:40;;;;;;;9.73;8.27;;;16.20;99.90;;;;;;4899672;28;94839;-32
2022/08/22 06:07:13;;;;;;;14.82;9.55;;;16.20;99.90;;;;;;4898488;28;94515;-33
2022/08/22 06:09:44;;;;;;;19.50;9.23;;;16.20;99.90;;;;;;4900016;28;94052;-30
2022/08/22 06:12:16;;;;;;;11.38;8.30;;;16.30;99.90;;;;;;4898964;28;95021;-34
2022/08/22 06:14:51;;;;;;;9.95;8.38;;;16.30;99.90;;;;;;4898471;28;94703;-33
2022/08/22 06:17:23;;;;;;;11.23;9.65;;;16.20;99.90;;;;;;4894468;28;94035;-32
2022/08/22 06:19:51;;;;;;;11.23;8.07;;;16.30;99.90;;;;;;4898728;28;93304;-32
2022/08/22 06:22:30;;;;;;;12.98;8.73;;;16.30;99.90;;;;;;4897934;28;94913;-32
2022/08/22 06:25:04;;;;;;;16.25;9.48;;;16.30;99.90;;;;;;4897179;28;94568;-30
2022/08/22 06:27:30;;;;;;;13.60;9.88;;;16.30;99.90;;;;;;4897377;28;93353;-33
2022/08/22 06:30:00;;;;;;;10.77;8.88;;;16.30;99.90;;;;;;4898184;28;94241;-35
2022/08/22 06:32:29;;;;;;;10.73;8.63;;;16.40;99.90;;;;;;4897540;28;94900;-32
2022/08/22 06:35:01;;;;;;;9.60;7.85;;;16.40;99.90;;;;;;4898757;28;94453;-34
2022/08/22 06:37:35;;;;;;;10.90;7.55;;;16.50;99.90;;;;;;4897288;28;92970;-33
2022/08/22 06:40:03;;;;;;;10.45;9.15;;;16.50;99.90;;;;;;4898386;28;93671;-31
2022/08/22 06:42:32;;;;;;;12.23;8.85;;;16.50;99.90;;;;;;4897923;28;96680;-30
2022/08/22 06:45:03;;;;;;;10.60;8.48;;;16.60;99.90;;;;;;4899237;28;95531;-32
2022/08/22 06:47:42;;;;;;;11.43;8.93;;;16.60;99.90;;;;;;4898330;28;93871;-32
2022/08/22 06:50:23;;;;;;;10.93;8.45;;;16.70;99.90;;;;;;4908545;28;92310;-33
2022/08/22 06:53:06;;;;;;;12.40;8.48;;;16.80;99.90;;;;;;4911907;28;93650;-31
2022/08/22 06:55:36;;;;;;;14.40;9.43;;;16.80;99.90;;;;;;4911308;28;94416;-30
2022/08/22 06:58:05;;;;;;;11.60;9.43;;;16.90;99.90;;;;;;4912284;28;92237;-34
2022/08/22 07:00:34;;;;;;;14.20;7.95;;;16.90;99.90;;;;;;4911874;28;92329;-30
2022/08/22 07:03:07;;;;;;;13.15;9.07;;;17.00;99.90;;;;;;4911282;28;94860;-31
2022/08/22 07:05:40;;;;;;;10.73;8.13;;;17.00;99.90;;;;;;4908882;28;94527;-30
2022/08/22 07:08:10;;;;;;;11.82;8.00;;;17.10;99.90;;;;;;4900639;28;94473;-32
2022/08/22 07:10:40;;;;;;;12.02;7.18;;;17.10;99.90;;;;;;4903634;28;93177;-30
2022/08/22 07:13:10;;;;;;;9.60;7.78;;;17.10;99.90;;;;;;4903083;28;94628;-35
2022/08/22 07:15:40;;;;;;;10.43;7.97;;;17.20;99.90;;;;;;4898767;28;94678;-35
2022/08/22 07:18:17;;;;;;;12.32;7.68;;;17.20;99.90;;;;;;4897616;28;94534;-32
2022/08/22 07:20:48;;;;;;;11.07;8.23;;;17.30;99.90;;;;;;4898902;28;93784;-32
2022/08/22 07:23:30;;;;;;;10.63;7.80;;;17.30;99.90;;;;;;4897392;28;94801;-32
2022/08/22 07:26:12;;;;;;;14.80;9.13;;;17.30;99.90;;;;;;4897614;28;94518;-31
2022/08/22 07:28:52;;;;;;;15.55;7.25;;;17.40;99.90;;;;;;4907105;28;92846;-31
2022/08/22 07:31:40;;;;;;;11.98;8.65;;;17.40;99.90;;;;;;4903459;28;92676;-32
2022/08/22 07:34:14;;;;;;;12.33;7.80;;;17.40;99.90;;;;;;4909607;28;95978;-33
2022/08/22 07:36:57;;;;;;;11.40;7.97;;;17.40;99.90;;;;;;4908535;28;95622;-32
2022/08/22 07:39:35;;;;;;;13.25;7.70;;;17.50;99.90;;;;;;4897294;28;93921;-34
2022/08/22 07:42:05;;;;;;;;;;;17.50;99.90;;;;;;4898061;28;94490;-29
2022/08/22 07:44:46;;;;;;;15.75;8.25;;;17.60;99.90;;;;;;4897816;28;94665;-33
2022/08/22 07:47:15;;;;;;;11.85;7.55;;;17.60;99.90;;;;;;4895678;28;94299;-34
2022/08/22 07:50:02;;;;;;;10.40;7.63;;;17.60;99.90;;;;;;4897946;28;93446;-32
2022/08/22 07:52:36;;;;;;;13.20;7.37;;;17.70;99.90;;;;;;4897373;28;91414;-34
2022/08/22 07:55:16;;;;;;;11.80;7.10;;;17.70;99.90;;;;;;4898277;28;94176;-34
2022/08/22 07:57:46;;;;;;;14.43;8.32;;;17.70;99.90;;;;;;4906348;28;94035;-33
2022/08/22 08:00:17;;;;;;;14.77;8.77;;;17.80;99.90;;;;;;4905045;28;93656;-33
2022/08/22 08:02:46;;;;;;;12.63;7.72;;;17.80;99.90;;;;;;4902388;28;93642;-33
2022/08/22 08:05:13;;;;;;;12.82;6.03;;;17.90;99.90;;;;;;4897838;28;94705;-32
2022/08/22 08:07:42;;;;;;;12.57;6.38;;;17.90;99.90;;;;;;4896850;28;94552;-33
2022/08/22 08:10:15;;;;;;;9.50;6.60;;;18.10;99.90;;;;;;4902368;28;92553;-35
2022/08/22 08:12:49;;;;;;;12.65;8.20;;;18.20;99.90;;;;;;4897424;28;94506;-29
2022/08/22 08:15:18;;;;;;;11.68;7.00;;;18.20;99.90;;;;;;4897513;28;95016;-33
2022/08/22 08:17:46;;;;;;;14.80;8.75;;;18.30;99.90;;;;;;4900387;28;94555;-33
2022/08/22 08:20:16;;;;;;;15.43;8.27;;;18.50;99.90;;;;;;4897557;28;94699;-32
2022/08/22 08:22:43;;;;;;;18.40;10.70;;;18.60;99.90;;;;;;4897290;28;93708;-31
2022/08/22 08:25:13;;;;;;;13.68;9.30;;;18.70;99.90;;;;;;4896198;28;95573;-32
2022/08/22 08:30:35;;;;;;;11.52;7.00;;;19.00;99.90;;;;;;4897016;28;93330;-30
2022/08/22 08:33:04;;;;;;;12.90;6.55;;;19.30;99.90;;;;;;4897126;28;93165;-32
2022/08/22 08:35:34;;;;;;;12.13;6.90;;;19.40;99.90;;;;;;4896643;28;95568;-32
2022/08/22 08:38:17;;;;;;;10.00;6.53;;;19.50;99.90;;;;;;4897247;28;94628;-30
2022/08/22 08:41:20;;;;;;;10.50;7.40;;;19.60;99.90;;;;;;4897308;28;93129;-33
2022/08/22 08:44:01;;;;;;;14.20;6.97;;;19.70;99.90;;;;;;4897456;28;93643;-31
2022/08/22 08:46:50;;;;;;;10.20;5.88;;;19.70;99.90;;;;;;4897295;28;94697;-32
2022/08/22 08:49:19;;;;;;;11.18;6.40;;;19.80;99.90;;;;;;4899976;28;94148;-31
2022/08/22 08:52:15;;;;;;;9.98;5.65;;;19.80;99.90;;;;;;4898195;28;94071;-31
2022/08/22 08:55:01;;;;;;;13.77;6.18;;;19.90;99.90;;;;;;4897100;28;93311;-32
2022/08/22 08:57:39;;;;;;;19.38;7.80;;;20.00;99.90;;;;;;4885290;28;94730;-32
2022/08/22 09:00:20;;;;;;;10.77;6.82;;;20.00;99.90;;;;;;4897661;28;96453;-32
2022/08/22 09:02:58;;;;;;;12.80;6.03;;;20.10;99.90;;;;;;4900618;28;92368;-33
2022/08/22 09:05:39;;;;;;;;;;;20.20;99.90;;;;;;4900037;28;93325;-34
2022/08/22 09:08:36;;;;;;;11.02;6.10;;;20.20;99.90;;;;;;4901771;28;94399;-31
2022/08/22 09:11:25;;;;;;;11.30;6.55;;;20.30;99.90;;;;;;4889168;28;93052;-31
2022/08/22 09:14:10;;;;;;;13.10;7.63;;;20.40;99.90;;;;;;4900231;28;94264;-35
2022/08/22 09:16:35;;;;;;;8.80;6.65;;;20.30;99.90;;;;;;4887711;28;93922;-32
2022/08/22 09:19:22;;;;;;;10.00;5.55;;;20.30;99.90;;;;;;4898049;28;95230;-34
2022/08/22 09:22:12;;;;;;;10.93;5.82;;;20.40;99.90;;;;;;4899175;28;95122;-33
2022/08/22 09:25:16;;;;;;;10.50;6.95;;;20.40;99.90;;;;;;4899480;28;93157;-33
2022/08/22 09:28:03;;;;;;;13.80;7.38;;;20.60;99.90;;;;;;4898955;28;93236;-33
2022/08/22 09:31:12;;;;;;;12.10;6.00;;;20.70;99.90;;;;;;4898558;28;94968;-31
2022/08/22 09:33:51;;;;;;;14.40;6.03;;;20.80;99.90;;;;;;4887835;28;93871;-32
2022/08/22 09:36:26;;;;;;;10.10;4.28;;;20.90;99.90;;;;;;4899131;28;93216;-34
2022/08/22 09:39:02;;;;;;;10.65;4.38;;;20.90;99.90;;;;;;4899293;28;92754;-33
2022/08/22 09:41:57;;;;;;;9.15;4.88;;;20.90;99.90;;;;;;4898208;28;94849;-34
2022/08/22 09:44:35;;;;;;;7.75;4.78;;;20.90;99.90;;;;;;4898886;28;93968;-32
2022/08/22 09:47:30;;;;;;;13.18;6.03;;;21.10;99.90;;;;;;4891527;28;95645;-31
2022/08/22 09:50:23;;;;;;;6.00;3.55;;;21.20;99.90;;;;;;4899152;28;93204;-31
2022/08/22 09:53:09;;;;;;;9.13;4.50;;;21.30;99.90;;;;;;4899258;28;94911;-36
2022/08/22 09:55:53;;;;;;;9.57;4.53;;;21.50;99.90;;;;;;4886525;28;94583;-33
2022/08/22 09:58:32;;;;;;;9.77;4.68;;;21.60;99.90;;;;;;4899043;28;92857;-31
2022/08/22 10:01:11;;;;;;;8.85;3.95;;;21.70;99.90;;;;;;4906655;28;92524;-34
2022/08/22 10:04:13;;;;;;;6.75;4.40;;;22.00;99.90;;;;;;4899825;28;94670;-33
2022/08/22 10:06:53;;;;;;;8.60;4.55;;;22.30;99.90;;;;;;4899062;28;93688;-33
2022/08/22 10:09:23;;;;;;;10.00;3.20;;;22.50;99.90;;;;;;4899118;28;94044;-31
2022/08/22 10:12:15;;;;;;;8.00;3.55;;;22.50;99.90;;;;;;4898156;28;94249;-32
2022/08/22 10:15:00;;;;;;;8.68;3.40;;;22.50;99.90;;;;;;4897720;28;95625;-31
2022/08/22 10:17:31;;;;;;;8.45;4.05;;;22.40;99.90;;;;;;4898277;28;95647;-35
2022/08/22 10:20:13;;;;;;;4.70;3.92;;;22.30;99.90;;;;;;4898879;28;93815;-31
2022/08/22 10:23:12;;;;;;;8.68;3.67;;;22.30;99.90;;;;;;4898490;28;94290;-31
2022/08/22 10:25:43;;;;;;;8.75;3.78;;;22.20;99.90;;;;;;4898648;28;95012;-32
2022/08/22 10:28:15;;;;;;;5.95;3.30;;;22.20;99.90;;;;;;4898405;28;94582;-30
2022/08/22 10:31:17;;;;;;;5.63;3.28;;;22.10;99.90;;;;;;4898949;28;93426;-33
2022/08/22 10:33:56;;;;;;;6.00;3.35;;;22.10;99.90;;;;;;4887730;28;92332;-34
2022/08/22 10:36:45;;;;;;;6.28;3.38;;;22.00;99.90;;;;;;4898748;28;95092;-31
2022/08/22 10:39:19;;;;;;;5.78;3.45;;;22.00;99.90;;;;;;4897422;28;95054;-32
2022/08/22 10:42:03;;;;;;;13.57;4.45;;;22.00;99.90;;;;;;4899229;28;94727;-35
2022/08/22 10:44:42;;;;;;;5.78;3.25;;;22.00;99.90;;;;;;4898468;28;94101;-31
2022/08/22 10:47:22;;;;;;;4.80;4.03;;;22.00;99.90;;;;;;4886803;28;95163;-30
2022/08/22 10:49:53;;;;;;;7.65;4.43;;;21.90;99.90;;;;;;4898886;28;94567;-30
2022/08/22 10:52:37;;;;;;;5.43;3.15;;;21.90;99.90;;;;;;4898351;28;92839;-34
2022/08/22 10:55:38;;;;;;;6.32;3.70;;;21.90;99.90;;;;;;4897860;28;93782;-33
2022/08/22 10:58:22;;;;;;;7.95;3.40;;;21.90;99.90;;;;;;4900154;28;94551;-31
2022/08/22 11:01:16;;;;;;;7.65;3.58;;;22.00;99.90;;;;;;4898713;28;94503;-33
2022/08/22 11:03:58;;;;;;;11.20;3.35;;;22.10;99.90;;;;;;4898381;28;93128;-33
2022/08/22 11:06:45;;;;;;;10.70;3.35;;;22.30;99.90;;;;;;4899181;28;93142;-33
2022/08/22 11:09:17;;;;;;;5.67;2.57;;;22.30;99.90;;;;;;4900046;28;95828;-34
2022/08/22 11:11:50;;;;;;;8.20;3.95;;;22.30;99.90;;;;;;4899161;28;95666;-31
2022/08/22 11:14:18;;;;;;;9.57;4.00;;;22.50;99.90;;;;;;4900144;28;94386;-32
2022/08/22 11:17:12;;;;;;;9.98;4.72;;;22.60;99.90;;;;;;4899833;28;92508;-34
2022/08/22 11:19:43;;;;;;;8.75;3.80;;;22.80;99.90;;;;;;4899271;28;94594;-33
2022/08/22 11:22:32;;;;;;;5.93;3.40;;;22.90;99.90;;;;;;4898667;28;95361;-34
2022/08/22 11:25:14;;;;;;;5.65;2.92;;;22.80;99.90;;;;;;4887260;28;93783;-33
2022/08/22 11:28:02;;;;;;;7.60;3.70;;;22.90;99.90;;;;;;4899978;28;93575;-32
2022/08/22 11:30:35;;;;;;;8.15;3.63;;;23.00;99.90;;;;;;4901400;28;93663;-32
2022/08/22 11:33:06;;;;;;;6.97;3.58;;;23.00;99.90;;;;;;4913625;28;94714;-32
2022/08/22 11:35:43;;;;;;;4.70;3.38;;;23.00;99.90;;;;;;4912849;28;93075;-31
2022/08/22 11:38:12;;;;;;;3.53;2.95;;;23.10;99.90;;;;;;4913650;28;92207;-32
2022/08/22 11:40:44;;;;;;;8.43;3.95;;;23.00;99.90;;;;;;4909265;28;94612;-32
2022/08/22 11:43:47;;;;;;;3.88;2.42;;;23.10;99.90;;;;;;4899017;28;94569;-33
2022/08/22 11:46:27;;;;;;;6.95;3.63;;;23.30;99.90;;;;;;4899697;28;92807;-30
2022/08/22 11:48:58;;;;;;;4.43;3.70;;;23.40;99.90;;;;;;4888030;28;93974;-34
2022/08/22 11:51:24;;;;;;;5.82;4.18;;;23.40;99.90;;;;;;4899161;28;94735;-33
2022/08/22 11:54:02;;;;;;;6.82;3.85;;;23.30;99.90;;;;;;4899036;28;95467;-32
2022/08/22 11:56:33;;;;;;;7.00;3.83;;;23.30;99.90;;;;;;4898624;28;93840;-33
2022/08/22 11:59:25;;;;;;;6.47;3.95;;;23.30;99.90;;;;;;4899484;28;94245;-30
2022/08/22 12:02:03;;;;;;;8.60;4.28;;;23.30;99.90;;;;;;4898850;28;95709;-32
2022/08/22 12:04:39;;;;;;;8.32;4.55;;;23.20;99.90;;;;;;4899295;28;95508;-32
2022/08/22 12:07:23;;;;;;;22.05;3.95;;;23.10;99.90;;;;;;4899181;28;93092;-33
2022/08/22 12:10:00;;;;;;;5.53;3.88;;;23.00;99.90;;;;;;4899152;28;93825;-32
2022/08/22 12:12:39;;;;;;;10.77;4.18;;;23.10;99.90;;;;;;4898586;28;95318;-30
2022/08/22 12:15:32;;;;;;;5.13;3.60;;;23.00;99.90;;;;;;4899289;28;95067;-33
2022/08/22 12:18:41;;;;;;;11.65;4.05;;;23.10;99.90;;;;;;4898868;28;92622;-33
2022/08/22 12:21:24;;;;;;;4.93;3.70;;;23.10;99.90;;;;;;4898671;28;91455;-31
2022/08/22 12:24:15;;;;;;;6.75;4.03;;;23.20;99.90;;;;;;4898776;28;94604;-34
2022/08/22 12:26:52;;;;;;;10.57;3.95;;;23.30;99.90;;;;;;4929922;23;94659;-32
2022/08/22 12:29:34;;;;;;;5.82;3.70;;;23.40;99.90;;;;;;4877628;28;93986;-32
2022/08/22 12:32:18;;;;;;;10.18;4.20;;;23.50;99.90;;;;;;4878845;28;92104;-33
2022/08/22 12:35:09;;;;;;;6.65;4.05;;;23.60;99.90;;;;;;4879271;28;94303;-32
2022/08/22 12:37:49;;;;;;;4.78;3.78;;;23.50;99.90;;;;;;4879020;28;94930;-30
2022/08/22 12:40:25;;;;;;;4.57;3.95;;;23.60;99.90;;;;;;4879249;28;92694;-33
2022/08/22 12:42:57;;;;;;;12.98;3.47;;;23.50;99.90;;;;;;4879409;28;94439;-33
2022/08/22 12:45:46;;;;;;;10.75;4.47;;;23.50;99.90;;;;;;4878537;28;94006;-31
2022/08/22 12:48:32;;;;;;;6.63;3.58;;;23.50;99.90;;;;;;4879137;28;94453;-35
2022/08/22 12:51:44;;;;;;;11.60;4.30;;;23.60;99.90;;;;;;4879204;28;92677;-34
2022/08/22 12:54:22;;;;;;;11.85;5.53;;;23.70;99.90;;;;;;4892847;28;92719;-33
2022/08/22 12:56:50;;;;;;;11.63;5.20;;;23.60;99.90;;;;;;4892508;28;94589;-31
2022/08/22 12:59:38;;;;;;;6.35;4.15;;;23.60;99.90;;;;;;4881130;28;95390;-31
2022/08/22 13:02:17;;;;;;;7.10;4.47;;;23.60;99.90;;;;;;4879279;28;93857;-32
2022/08/22 13:04:59;;;;;;;7.82;4.53;;;23.80;99.90;;;;;;4878802;28;94433;-31
2022/08/22 13:07:32;;;;;;;8.93;3.88;;;23.90;99.90;;;;;;4879252;28;94648;-32
2022/08/22 13:10:30;;;;;;;7.13;4.45;;;23.80;99.90;;;;;;4879068;28;94531;-32
2022/08/22 13:12:57;;;;;;;9.10;4.47;;;23.90;99.90;;;;;;4879408;28;92891;-31
2022/08/22 13:15:43;;;;;;;6.45;3.90;;;23.90;99.90;;;;;;4878649;28;93271;-34
2022/08/22 13:18:18;;;;;;;7.38;4.28;;;23.90;99.90;;;;;;4879457;28;95119;-33
2022/08/22 13:20:48;;;;;;;9.93;4.43;;;23.90;99.90;;;;;;4877958;28;94655;-33
2022/08/22 13:23:24;;;;;;;5.97;4.60;;;23.80;99.90;;;;;;4878793;28;93815;-32
2022/08/22 13:26:17;;;;;;;8.23;5.68;;;23.80;99.90;;;;;;4879271;28;94508;-33
2022/08/22 13:28:57;;;;;;;9.48;4.15;;;23.80;99.90;;;;;;4878301;28;94282;-32
2022/08/22 13:31:42;;;;;;;10.73;5.10;;;23.80;99.90;;;;;;4878238;28;94680;-31
2022/08/22 13:34:30;;;;;;;11.75;4.72;;;23.80;99.90;;;;;;4878739;28;93196;-32
2022/08/22 13:36:59;;;;;;;13.18;4.30;;;23.80;99.90;;;;;;4878834;28;94278;-34
2022/08/22 13:39:31;;;;;;;10.13;5.45;;;23.80;99.90;;;;;;4878734;28;93519;-33
2022/08/22 13:41:59;;;;;;;6.95;4.50;;;24.00;99.90;;;;;;4878404;28;94710;-32
2022/08/22 13:44:26;;;;;;;4.90;4.10;;;24.00;99.90;;;;;;4878758;28;94399;-34
2022/08/22 13:46:53;;;;;;;9.45;3.80;;;24.00;99.90;;;;;;4881010;28;92368;-30
2022/08/22 13:49:34;;;;;;;10.23;4.80;;;24.00;99.90;;;;;;4881106;28;95768;-34
2022/08/22 13:52:18;;;;;;;7.45;4.90;;;23.80;99.90;;;;;;4882006;28;96092;-33
2022/08/22 13:54:49;;;;;;;9.75;4.10;;;23.80;99.90;;;;;;4880727;28;93166;-33